Livorno Express — ZCDV9 — position and weather

sailwx.info

Track history (hours):
 
Tides and Currents Weather Stations Pressure Air Temp Water Temp Dewpoint Dewpoint Depression Visibility Wind Speed Wind Dir Waves Ship Positions

Livorno Express

Last reported at 2014-Oct-18 13:04 UTC. Time now 2014-Oct-22 21:53 UTC.
Position N 31°21' E 032°18'.

Type: Cargo ship. MMSI: 310541000.

Date/timePositionNaut miles runAvg speedWind from/ knotsBaromVisibWave heightAir tempDewpointWater temp
2014-Oct-18 13:04N 31°21' E 032°18'  
2014-Oct-12 04:33N 36°14' E 015°21'1716.9
2014-Oct-12 03:33N 36°20' E 015°02'3417.2
2014-Oct-12 01:33N 36°32' E 014°21'1717.5
2014-Oct-12 00:33N 36°39' E 014°01'1717.3
2014-Oct-11 23:33N 36°45' E 013°41'1816.9
2014-Oct-11 22:29N 36°52' E 013°20'1616.8
2014-Oct-11 21:33N 36°58' E 013°02'1716.4
2014-Oct-11 20:32N 37°03' E 012°42'1616.3
2014-Oct-11 19:33N 37°15' E 012°28'17216.6
2014-Oct-11 09:11N 38°55' E 009°30'1015.3
2014-Oct-11 08:33N 39°00' E 009°20'8 8.5
2014-Oct-11 07:33N 39°05' E 009°11'10 9.9
2014-Oct-11 06:33N 39°13' E 009°04'0 0.1
2014-Oct-11 05:33N 39°13' E 009°04'0 0.0
2014-Oct-11 04:33N 39°13' E 009°04'0 0.0
2014-Oct-11 03:33N 39°13' E 009°04'0 0.0
2014-Oct-11 02:33N 39°13' E 009°04'0 0.0
2014-Oct-11 01:33N 39°13' E 009°04'0 0.0
2014-Oct-11 00:33N 39°13' E 009°04'0 0.0
2014-Oct-10 23:33N 39°13' E 009°04'0 0.0
2014-Oct-10 22:33N 39°13' E 009°04'0 0.0
2014-Oct-10 21:33N 39°13' E 009°04'0 0.0
2014-Oct-10 20:33N 39°13' E 009°04'0 0.0
2014-Oct-10 19:33N 39°13' E 009°04'0 0.0
2014-Oct-10 18:32N 39°13' E 009°04'0 0.0
2014-Oct-10 17:32N 39°13' E 009°04'0 0.0
2014-Oct-10 16:32N 39°13' E 009°04'0 0.0
2014-Oct-10 15:32N 39°13' E 009°04'0 0.0
2014-Oct-10 14:32N 39°13' E 009°04'0 0.0
2014-Oct-10 13:32N 39°13' E 009°04'0 0.0
2014-Oct-10 12:32N 39°13' E 009°04'0 0.0
2014-Oct-10 11:32N 39°13' E 009°04'0 0.0
2014-Oct-10 10:32N 39°13' E 009°04'3 3.3
2014-Oct-10 09:33N 39°10' E 009°07'1212.5
2014-Oct-10 08:33N 39°01' E 009°18'1110.8
2014-Oct-10 07:33N 38°57' E 009°30'1615.8
2014-Oct-10 06:33N 39°02' E 009°49'5315.7
2014-Oct-10 03:09N 39°25' E 010°51'12615.7
2014-Oct-09 19:10N 40°20' E 013°18'1016.0
2014-Oct-09 18:34N 40°24' E 013°30'1616.0
2014-Oct-09 17:33N 40°31' E 013°49'1615.8
2014-Oct-09 16:33N 40°41' E 014°05'1312.8
2014-Oct-09 15:34N 40°50' E 014°17'0 0.3
2014-Oct-09 14:33N 40°50' E 014°17'0 0.0
2014-Oct-09 13:33N 40°50' E 014°17'0 0.0
2014-Oct-09 12:33N 40°50' E 014°17'0 0.0
2014-Oct-09 11:33N 40°50' E 014°17'0 0.0
2014-Oct-09 09:33N 40°50' E 014°17'0 0.0
2014-Oct-09 08:06N 40°50' E 014°17'0 0.0
2014-Oct-09 05:33N 40°50' E 014°17'2 2.2
2014-Oct-09 04:33N 40°48' E 014°18'6 6.1
2014-Oct-09 03:33N 40°44' E 014°13'1 0.3
2014-Oct-09 01:16N 40°44' E 014°14'0 0.3
2014-Oct-09 00:33N 40°44' E 014°14'1 1.1
2014-Oct-08 23:31N 40°43' E 014°13'1711.9
2014-Oct-08 22:05N 40°27' E 014°06'916.0
2014-Oct-08 21:33N 40°27' E 014°17'  
Track history (hours):
 
Tides and Currents Weather Stations Pressure Air Temp Water Temp Dewpoint Dewpoint Depression Visibility Wind Speed Wind Dir Waves Ship Positions

Livorno Express

Last reported at 2014-Oct-18 13:04 UTC. Time now 2014-Oct-22 21:53 UTC.
Position N 31°21' E 032°18'.

Type: Cargo ship. MMSI: 310541000.

Date/timePositionNaut miles runAvg speedWind from/ knotsBaromVisibWave heightAir tempDewpointWater temp
2014-Oct-18 13:04N 31°21' E 032°18'  
2014-Oct-12 04:33N 36°14' E 015°21'1716.9
2014-Oct-12 03:33N 36°20' E 015°02'3417.2
2014-Oct-12 01:33N 36°32' E 014°21'1717.5
2014-Oct-12 00:33N 36°39' E 014°01'1717.3
2014-Oct-11 23:33N 36°45' E 013°41'1816.9
2014-Oct-11 22:29N 36°52' E 013°20'1616.8
2014-Oct-11 21:33N 36°58' E 013°02'1716.4
2014-Oct-11 20:32N 37°03' E 012°42'1616.3
2014-Oct-11 19:33N 37°15' E 012°28'17216.6
2014-Oct-11 09:11N 38°55' E 009°30'1015.3
2014-Oct-11 08:33N 39°00' E 009°20'8 8.5
2014-Oct-11 07:33N 39°05' E 009°11'10 9.9
2014-Oct-11 06:33N 39°13' E 009°04'0 0.1
2014-Oct-11 05:33N 39°13' E 009°04'0 0.0
2014-Oct-11 04:33N 39°13' E 009°04'0 0.0
2014-Oct-11 03:33N 39°13' E 009°04'0 0.0
2014-Oct-11 02:33N 39°13' E 009°04'0 0.0
2014-Oct-11 01:33N 39°13' E 009°04'0 0.0
2014-Oct-11 00:33N 39°13' E 009°04'0 0.0
2014-Oct-10 23:33N 39°13' E 009°04'0 0.0
2014-Oct-10 22:33N 39°13' E 009°04'0 0.0
2014-Oct-10 21:33N 39°13' E 009°04'0 0.0
2014-Oct-10 20:33N 39°13' E 009°04'0 0.0
2014-Oct-10 19:33N 39°13' E 009°04'0 0.0
2014-Oct-10 18:32N 39°13' E 009°04'0 0.0
2014-Oct-10 17:32N 39°13' E 009°04'0 0.0
2014-Oct-10 16:32N 39°13' E 009°04'0 0.0
2014-Oct-10 15:32N 39°13' E 009°04'0 0.0
2014-Oct-10 14:32N 39°13' E 009°04'0 0.0
2014-Oct-10 13:32N 39°13' E 009°04'0 0.0
2014-Oct-10 12:32N 39°13' E 009°04'0 0.0
2014-Oct-10 11:32N 39°13' E 009°04'0 0.0
2014-Oct-10 10:32N 39°13' E 009°04'3 3.3
2014-Oct-10 09:33N 39°10' E 009°07'1212.5
2014-Oct-10 08:33N 39°01' E 009°18'1110.8
2014-Oct-10 07:33N 38°57' E 009°30'1615.8
2014-Oct-10 06:33N 39°02' E 009°49'5315.7
2014-Oct-10 03:09N 39°25' E 010°51'12615.7
2014-Oct-09 19:10N 40°20' E 013°18'1016.0
2014-Oct-09 18:34N 40°24' E 013°30'1616.0
2014-Oct-09 17:33N 40°31' E 013°49'1615.8
2014-Oct-09 16:33N 40°41' E 014°05'1312.8
2014-Oct-09 15:34N 40°50' E 014°17'0 0.3
2014-Oct-09 14:33N 40°50' E 014°17'0 0.0
2014-Oct-09 13:33N 40°50' E 014°17'0 0.0
2014-Oct-09 12:33N 40°50' E 014°17'0 0.0
2014-Oct-09 11:33N 40°50' E 014°17'0 0.0
2014-Oct-09 09:33N 40°50' E 014°17'0 0.0
2014-Oct-09 08:06N 40°50' E 014°17'0 0.0
2014-Oct-09 05:33N 40°50' E 014°17'2 2.2
2014-Oct-09 04:33N 40°48' E 014°18'6 6.1
2014-Oct-09 03:33N 40°44' E 014°13'1 0.3
2014-Oct-09 01:16N 40°44' E 014°14'0 0.3
2014-Oct-09 00:33N 40°44' E 014°14'1 1.1
2014-Oct-08 23:31N 40°43' E 014°13'1711.9
2014-Oct-08 22:05N 40°27' E 014°06'916.0
2014-Oct-08 21:33N 40°27' E 014°17'  

Dump ship's entire track history